createdAt,value
2023-05-01T00:00:50.033Z,5.20
2023-05-01T00:03:42.037Z,5.20
2023-05-01T00:06:32.663Z,5.10
2023-05-01T00:09:22.277Z,5.60
2023-05-01T00:12:12.828Z,5.63
2023-05-01T00:15:04.281Z,6.00
2023-05-01T00:18:30.803Z,5.93
2023-05-01T00:25:02.091Z,5.40
2023-05-01T00:27:50.685Z,6.13
2023-05-01T00:30:39.067Z,6.50
2023-05-01T00:33:27.419Z,7.00
2023-05-01T00:36:15.822Z,6.20
2023-05-01T00:39:04.454Z,6.50
2023-05-01T00:41:55.021Z,6.07
2023-05-01T00:44:46.393Z,6.00
2023-05-01T01:03:58.369Z,6.93
2023-05-01T01:06:57.271Z,6.77
2023-05-01T01:09:57.354Z,6.90
2023-05-01T01:12:56.186Z,6.10
2023-05-01T01:15:51.742Z,6.47
2023-05-01T01:18:44.884Z,7.70
2023-05-01T01:21:38.137Z,6.90
2023-05-01T01:24:46.039Z,7.50
2023-05-01T01:28:07.871Z,7.30
2023-05-01T01:31:15.803Z,7.20
2023-05-01T01:34:14.717Z,7.63
2023-05-01T01:37:09.362Z,6.87
2023-05-01T01:40:05.350Z,5.90
2023-05-01T01:43:00.127Z,7.70
2023-05-01T01:45:51.980Z,6.77
2023-05-01T01:48:43.807Z,7.07
2023-05-01T01:51:35.860Z,7.03
2023-05-01T01:54:32.605Z,7.03
2023-05-01T01:57:23.608Z,7.10
2023-05-01T02:00:13.891Z,7.70
2023-05-01T02:03:03.692Z,7.30
2023-05-01T02:05:53.437Z,7.27
2023-05-01T02:08:44.466Z,7.13
2023-05-01T02:11:33.376Z,6.80
2023-05-01T02:14:24.181Z,6.67
2023-05-01T02:17:14.065Z,8.20
2023-05-01T02:20:05.235Z,8.30
2023-05-01T02:22:54.313Z,7.77
2023-05-01T02:25:45.456Z,9.13
2023-05-01T02:28:35.463Z,8.60
2023-05-01T02:31:24.224Z,8.10
2023-05-01T02:34:12.443Z,7.77
2023-05-01T02:37:00.712Z,8.37
2023-05-01T02:39:49.326Z,7.67
2023-05-01T02:42:40.816Z,8.10
2023-05-01T02:45:32.158Z,9.10
2023-05-01T02:48:23.468Z,7.77
2023-05-01T02:51:12.092Z,7.93
2023-05-01T02:54:05.637Z,7.67
2023-05-01T02:56:56.717Z,7.90
2023-05-01T02:59:49.964Z,8.33
2023-05-01T03:02:39.912Z,8.20
2023-05-01T03:05:29.255Z,8.53
2023-05-01T03:08:18.823Z,9.20
2023-05-01T03:11:08.686Z,8.27
2023-05-01T03:13:57.852Z,8.03
2023-05-01T03:16:49.394Z,7.60
2023-05-01T03:19:39.446Z,8.13
2023-05-01T03:22:33.518Z,7.47
2023-05-01T03:37:36.859Z,7.20
2023-05-01T03:40:26.870Z,7.93
2023-05-01T03:43:16.687Z,8.00
2023-05-01T03:49:11.530Z,7.80
2023-05-01T03:52:05.003Z,7.63
2023-05-01T03:54:57.720Z,7.43
2023-05-01T04:00:51.334Z,8.33
2023-05-01T04:03:48.807Z,6.80
2023-05-01T04:12:43.227Z,7.20
2023-05-01T04:18:43.357Z,7.00
2023-05-01T04:21:33.285Z,8.30
2023-05-01T04:24:22.585Z,7.60
2023-05-01T04:33:13.757Z,7.63
2023-05-01T04:42:43.979Z,6.83
2023-05-01T04:45:37.802Z,6.63
2023-05-01T04:48:31.408Z,6.60
2023-05-01T04:51:25.893Z,6.90
2023-05-01T04:54:15.342Z,7.03
2023-05-01T05:00:13.727Z,8.03
2023-05-01T05:03:06.028Z,6.63
2023-05-01T05:05:57.511Z,6.40
2023-05-01T05:08:52.272Z,7.30
2023-05-01T05:11:41.783Z,7.43
2023-05-01T05:14:31.475Z,7.77
2023-05-01T05:17:20.994Z,5.83
2023-05-01T05:20:12.071Z,7.43
2023-05-01T05:23:02.819Z,6.87
2023-05-01T05:25:52.534Z,6.90
2023-05-01T05:28:46.515Z,7.23
2023-05-01T05:31:36.791Z,6.90
2023-05-01T05:34:26.264Z,7.00
2023-05-01T05:37:15.684Z,6.63
2023-05-01T05:40:11.687Z,7.47
2023-05-01T06:11:48.053Z,6.60
2023-05-01T06:14:37.768Z,5.70
2023-05-01T06:17:27.191Z,6.53
2023-05-01T06:20:16.505Z,6.10
2023-05-01T06:23:05.765Z,5.80
2023-05-01T06:25:58.124Z,6.00
2023-05-01T06:28:51.647Z,6.43
2023-05-01T06:31:40.792Z,6.30
2023-05-01T06:34:29.668Z,5.73
2023-05-01T06:37:23.290Z,5.50
2023-05-01T06:40:15.141Z,6.03
2023-05-01T06:43:04.040Z,6.37
2023-05-01T06:45:56.420Z,5.80
2023-05-01T06:48:46.052Z,5.67
2023-05-01T06:51:35.886Z,4.73
2023-05-01T06:54:29.484Z,5.80
2023-05-01T06:57:19.279Z,5.90
2023-05-01T07:00:10.825Z,5.40
2023-05-01T07:03:05.342Z,5.23
2023-05-01T07:05:55.878Z,5.17
2023-05-01T07:08:44.309Z,5.43
2023-05-01T07:11:34.990Z,4.43
2023-05-01T07:14:24.500Z,4.50
2023-05-01T07:17:12.785Z,4.77
2023-05-01T07:20:05.692Z,4.70
2023-05-01T07:22:54.281Z,4.43
2023-05-01T07:25:42.948Z,4.30
2023-05-01T07:28:33.716Z,5.43
2023-05-01T07:31:22.899Z,4.90
2023-05-01T07:34:11.888Z,6.03
2023-05-01T07:37:02.033Z,4.50
2023-05-01T07:39:50.736Z,5.53
2023-05-01T07:42:39.121Z,4.73
2023-05-01T07:45:27.308Z,4.27
2023-05-01T07:48:17.865Z,5.00
2023-05-01T07:51:06.634Z,5.10
2023-05-01T07:53:56.141Z,4.93
2023-05-01T07:56:44.530Z,4.33
2023-05-01T07:59:35.428Z,4.23
2023-05-01T08:02:25.964Z,4.03
2023-05-01T17:30:49.380Z,6.20
2023-05-01T17:33:39.811Z,6.27
2023-05-01T17:36:30.723Z,6.77
2023-05-01T17:39:22.026Z,6.23
2023-05-01T17:42:13.683Z,6.70
2023-05-01T17:45:04.881Z,7.17
2023-05-01T17:47:59.546Z,6.47
2023-05-01T19:05:40.850Z,7.40
2023-05-01T21:02:23.662Z,10.23
2023-05-01T21:06:07.804Z,11.27
2023-05-01T21:21:39.726Z,9.07
2023-05-01T21:24:28.252Z,10.43
2023-05-01T21:27:19.170Z,10.27
2023-05-01T21:30:09.006Z,10.20
2023-05-01T21:32:58.499Z,9.60
2023-05-01T21:35:47.886Z,8.47
2023-05-01T21:38:38.326Z,9.50
2023-05-01T21:41:27.063Z,8.93
2023-05-01T21:44:16.439Z,8.80
2023-05-01T21:47:05.079Z,8.40
2023-05-01T21:49:58.367Z,9.10
2023-05-01T21:52:48.563Z,8.03
2023-05-01T21:55:53.566Z,7.70
2023-05-01T21:58:44.932Z,8.13
2023-05-01T22:01:34.956Z,8.00
2023-05-01T22:04:24.983Z,9.50
2023-05-01T22:07:14.046Z,7.60
2023-05-01T22:10:02.886Z,7.27
2023-05-01T22:12:53.561Z,7.90
2023-05-01T22:15:42.428Z,7.40
2023-05-01T22:18:31.667Z,8.20
2023-05-01T22:21:20.402Z,7.40
2023-05-01T22:24:09.017Z,7.30
2023-05-01T22:26:57.581Z,7.47
2023-05-01T22:29:47.857Z,7.80
2023-05-01T22:32:36.388Z,6.60
2023-05-01T22:35:24.938Z,7.17
2023-05-01T22:38:13.786Z,7.43
2023-05-01T22:41:02.410Z,7.90
2023-05-01T22:43:59.079Z,7.17
2023-05-01T22:46:51.819Z,8.30
2023-05-01T22:50:13.669Z,7.63
2023-05-01T22:53:04.496Z,7.83
2023-05-01T22:55:55.635Z,7.30
2023-05-01T22:59:27.302Z,7.20
2023-05-01T23:02:38.399Z,7.00
2023-05-01T23:05:51.579Z,8.70
2023-05-01T23:09:01.089Z,7.53
2023-05-01T23:12:01.724Z,9.60
2023-05-01T23:14:57.621Z,7.57
2023-05-01T23:18:21.671Z,7.97
2023-05-01T23:21:18.681Z,6.47
2023-05-01T23:24:14.298Z,6.37
2023-05-01T23:27:04.401Z,6.97
2023-05-01T23:30:12.872Z,6.90
2023-05-01T23:33:12.913Z,5.70
2023-05-01T23:36:05.436Z,6.73
2023-05-01T23:39:10.824Z,6.07
2023-05-01T23:42:08.783Z,6.10
2023-05-01T23:45:00.711Z,6.90
2023-05-01T23:47:51.518Z,6.47
2023-05-01T23:50:43.552Z,6.70
2023-05-01T23:53:55.967Z,6.50
2023-05-01T23:57:03.531Z,6.13
